Time;durP1;ratioP1;P1;durP2;ratioP2;P2;SDS_P1;SDS_P2;PMS_P1;PMS_P2;Temp;Humidity;BMP_temperature;BMP_pressure;BME280_temperature;BME280_humidity;BME280_pressure;Samples;Min_cycle;Max_cycle;Signal;HPM_P1;HPM_P2
2022/12/28 00:02:21;;;;;;;4.85;2.03;;;8.10;71.20;;;;;;2559081;53;21765;-85
2022/12/28 00:04:48;;;;;;;4.82;1.98;;;8.10;70.60;;;;;;2560003;53;20919;-84
2022/12/28 00:07:14;;;;;;;4.07;1.85;;;8.00;70.50;;;;;;2558761;53;21808;-84
2022/12/28 00:09:40;;;;;;;5.22;2.50;;;8.00;70.60;;;;;;2559053;53;25676;-84
2022/12/28 00:12:06;;;;;;;4.32;1.92;;;7.90;70.60;;;;;;2559111;53;20959;-84
2022/12/28 00:14:33;;;;;;;5.00;2.33;;;7.90;70.70;;;;;;2320495;54;21369;-85
2022/12/28 00:16:59;;;;;;;4.35;2.28;;;7.90;70.80;;;;;;2558710;53;20952;-85
2022/12/28 00:19:25;;;;;;;6.78;2.90;;;7.80;70.80;;;;;;2320427;54;21830;-85
2022/12/28 00:21:52;;;;;;;4.62;2.00;;;7.80;70.80;;;;;;2320036;54;20951;-85
2022/12/28 00:24:23;;;;;;;4.87;2.35;;;7.80;70.80;;;;;;2559844;53;22158;-84
2022/12/28 00:26:49;;;;;;;4.05;2.22;;;7.70;70.70;;;;;;2320156;54;21018;-84
2022/12/28 00:29:16;;;;;;;4.87;2.75;;;7.70;70.80;;;;;;2559766;53;20947;-85
2022/12/28 00:31:44;;;;;;;4.30;2.30;;;7.70;70.90;;;;;;2320021;53;20983;-84
2022/12/28 00:34:10;;;;;;;3.33;1.50;;;7.60;70.90;;;;;;2320476;53;20998;-86
2022/12/28 00:36:36;;;;;;;2.55;1.00;;;7.60;71.10;;;;;;2560486;53;21844;-85
2022/12/28 00:39:04;;;;;;;1.55;0.75;;;7.60;71.40;;;;;;2559622;53;20923;-85
2022/12/28 00:41:30;;;;;;;2.90;0.60;;;7.60;71.70;;;;;;2560069;53;20958;-84
2022/12/28 00:43:57;;;;;;;1.60;0.70;;;7.60;72.10;;;;;;2559843;53;20991;-83
2022/12/28 00:46:23;;;;;;;1.50;0.68;;;7.60;72.60;;;;;;2320372;53;21464;-86
2022/12/28 00:48:49;;;;;;;2.10;0.60;;;7.60;73.00;;;;;;2320678;53;20935;-83
2022/12/28 00:51:17;;;;;;;1.45;0.70;;;7.70;73.40;;;;;;2560066;53;20927;-84
2022/12/28 00:53:43;;;;;;;1.15;0.50;;;7.70;73.60;;;;;;2320460;53;20983;-85
2022/12/28 00:56:14;;;;;;;2.35;0.50;;;7.80;74.00;;;;;;2319850;53;20975;-84
2022/12/28 00:58:40;;;;;;;1.73;0.62;;;7.80;74.30;;;;;;2559920;53;20979;-85
2022/12/28 01:01:12;;;;;;;1.15;0.40;;;7.90;74.60;;;;;;2319969;53;20983;-85
2022/12/28 01:03:38;;;;;;;1.37;0.50;;;8.00;74.80;;;;;;2560865;53;20915;-84
2022/12/28 01:06:16;;;;;;;1.35;0.50;;;8.10;74.90;;;;;;2560312;53;20943;-85
2022/12/28 01:08:42;;;;;;;1.58;0.70;;;8.00;74.70;;;;;;2560387;53;21401;-84
2022/12/28 01:11:14;;;;;;;1.17;0.50;;;8.20;75.20;;;;;;2321304;53;21435;-84
2022/12/28 01:13:41;;;;;;;2.85;0.70;;;8.30;75.20;;;;;;2561484;53;21080;-84
2022/12/28 01:16:18;;;;;;;1.73;0.65;;;8.40;75.20;;;;;;2560801;53;21441;-85
2022/12/28 01:18:45;;;;;;;1.50;0.50;;;8.50;75.20;;;;;;2321912;53;21046;-85
2022/12/28 01:21:16;;;;;;;1.20;0.50;;;8.60;75.30;;;;;;2322815;53;21043;-85
2022/12/28 01:23:43;;;;;;;2.53;0.70;;;8.60;75.20;;;;;;2562219;53;20940;-85
2022/12/28 01:26:09;;;;;;;2.10;0.50;;;8.70;75.20;;;;;;2560228;53;20979;-84
2022/12/28 01:28:36;;;;;;;2.97;0.65;;;8.80;75.30;;;;;;2558462;53;20971;-85
2022/12/28 01:31:07;;;;;;;1.20;0.45;;;8.80;75.20;;;;;;2318169;53;20935;-85
2022/12/28 01:33:34;;;;;;;1.48;0.60;;;8.90;75.10;;;;;;2560479;53;21038;-84
2022/12/28 01:36:08;;;;;;;2.95;0.60;;;8.90;75.10;;;;;;2319987;53;21443;-85
2022/12/28 01:38:35;;;;;;;2.28;0.60;;;9.00;75.00;;;;;;2559555;53;21084;-85
2022/12/28 01:41:05;;;;;;;1.48;0.52;;;9.10;75.10;;;;;;2559467;53;20931;-84
2022/12/28 01:43:41;;;;;;;2.35;0.57;;;9.10;74.90;;;;;;2317623;53;21011;-84
2022/12/28 01:47:41;;;;;;;1.98;0.73;;;9.20;74.90;;;;;;2559370;53;20915;-84
2022/12/28 01:50:10;;;;;;;2.85;0.60;;;9.20;74.90;;;;;;2559388;53;20903;-85
2022/12/28 01:52:45;;;;;;;5.22;0.50;;;9.40;75.00;;;;;;2320137;53;20943;-85
2022/12/28 01:55:17;;;;;;;1.40;0.62;;;9.40;74.60;;;;;;2559017;53;20995;-85
2022/12/28 01:57:45;;;;;;;;;;;9.50;74.70;;;;;;2322727;53;21307;-84
2022/12/28 02:00:13;;;;;;;1.75;0.40;;;9.50;74.00;;;;;;2558913;53;20064;-84
2022/12/28 02:02:41;;;;;;;1.20;0.50;;;9.60;74.70;;;;;;2319825;53;20931;-85
2022/12/28 02:05:09;;;;;;;1.58;0.40;;;9.60;74.60;;;;;;2319637;53;22065;-86
2022/12/28 02:07:45;;;;;;;2.25;0.50;;;9.60;74.60;;;;;;2319907;53;21870;-85
2022/12/28 02:10:12;;;;;;;2.35;0.40;;;9.70;74.20;;;;;;2559164;53;20927;-85
2022/12/28 02:12:38;;;;;;;1.67;0.47;;;9.70;74.50;;;;;;2559704;53;20943;-84
2022/12/28 02:15:05;;;;;;;1.83;0.55;;;9.70;74.40;;;;;;2558595;53;20931;-85
2022/12/28 02:17:35;;;;;;;1.40;0.50;;;9.80;74.40;;;;;;2559397;53;20943;-85
2022/12/28 02:20:01;;;;;;;0.88;0.37;;;9.80;74.40;;;;;;2319175;53;21042;-84
2022/12/28 02:28:12;;;;;;;1.08;0.50;;;9.80;74.30;;;;;;2319182;53;21034;-84
2022/12/28 02:30:53;;;;;;;1.27;0.40;;;10.00;71.70;;;;;;2558309;53;21534;-84
2022/12/28 02:35:57;;;;;;;1.00;0.37;;;10.00;72.50;;;;;;2312320;54;21023;-85
2022/12/28 02:38:41;;;;;;;1.67;0.40;;;10.00;71.30;;;;;;2526636;54;20954;-85
2022/12/28 02:41:09;;;;;;;1.20;0.35;;;10.10;72.20;;;;;;2526408;54;20950;-85
2022/12/28 02:43:36;;;;;;;1.70;0.40;;;10.10;72.70;;;;;;2527165;54;20925;-84
2022/12/28 02:50:05;;;;;;;1.25;0.40;;;10.10;71.20;;;;;;2293006;54;21699;-85
2022/12/28 03:00:14;;;;;;;1.15;0.40;;;10.10;72.50;;;;;;2527030;54;20898;-84
2022/12/28 03:10:38;;;;;;;0.57;0.30;;;10.20;70.90;;;;;;2527017;54;20938;-83
2022/12/28 03:13:41;;;;;;;0.70;0.30;;;10.20;71.30;;;;;;2292520;54;21839;-84
2022/12/28 03:16:26;;;;;;;;;;;10.20;72.30;;;;;;2296264;54;21541;-84
2022/12/28 03:32:58;;;;;;;0.85;0.37;;;10.30;72.10;;;;;;2559243;53;20888;-84
2022/12/28 03:35:42;;;;;;;0.80;0.45;;;10.30;72.60;;;;;;2559339;53;21014;-83
2022/12/28 03:38:08;;;;;;;0.55;0.30;;;10.30;72.30;;;;;;2558792;53;20960;-87
2022/12/28 03:40:41;;;;;;;2.40;0.60;;;10.30;72.60;;;;;;2559282;53;20935;-85
2022/12/28 03:46:01;;;;;;;0.55;0.30;;;10.40;72.50;;;;;;2323685;54;20939;-85
2022/12/28 03:48:27;;;;;;;2.65;0.40;;;10.40;72.40;;;;;;2559329;53;20992;-85
2022/12/28 03:50:54;;;;;;;0.73;0.30;;;10.40;72.50;;;;;;2559000;53;21772;-85
2022/12/28 03:53:23;;;;;;;2.78;0.52;;;10.40;72.40;;;;;;2559795;53;21797;-85
2022/12/28 03:55:49;;;;;;;1.55;0.47;;;10.50;72.40;;;;;;2559812;53;20982;-85
2022/12/28 03:58:15;;;;;;;2.28;0.40;;;10.50;72.40;;;;;;2319001;53;20966;-84
2022/12/28 04:00:42;;;;;;;1.12;0.40;;;10.50;72.40;;;;;;2319863;53;20938;-85
2022/12/28 04:03:08;;;;;;;1.05;0.40;;;10.50;72.30;;;;;;2558541;53;20924;-85
2022/12/28 04:05:35;;;;;;;1.70;0.40;;;10.50;72.30;;;;;;2559703;53;20931;-85
2022/12/28 04:08:01;;;;;;;0.50;0.30;;;10.60;72.30;;;;;;2319200;53;20911;-85
2022/12/28 04:10:27;;;;;;;1.52;0.45;;;10.60;72.30;;;;;;2319606;53;20935;-84
2022/12/28 04:12:55;;;;;;;1.27;0.40;;;10.60;72.20;;;;;;2558958;53;21015;-84
2022/12/28 04:15:21;;;;;;;1.33;0.43;;;10.60;72.20;;;;;;2559324;53;20899;-85
2022/12/28 04:17:48;;;;;;;1.87;0.47;;;10.60;72.20;;;;;;2319347;53;20934;-85
2022/12/28 04:20:15;;;;;;;3.15;0.60;;;10.60;72.10;;;;;;2527603;53;20972;-85
2022/12/28 04:22:41;;;;;;;2.53;0.50;;;10.60;72.10;;;;;;2559180;53;21720;-85
2022/12/28 04:25:07;;;;;;;0.73;0.30;;;10.70;72.10;;;;;;2319537;53;21482;-84
2022/12/28 04:27:34;;;;;;;1.17;0.37;;;10.70;72.10;;;;;;2559119;53;21397;-85
2022/12/28 04:30:00;;;;;;;1.62;0.40;;;10.70;72.10;;;;;;2558716;53;20935;-85
2022/12/28 04:32:27;;;;;;;0.73;0.35;;;10.70;72.00;;;;;;2559780;53;20925;-85
2022/12/28 04:34:53;;;;;;;1.00;0.40;;;10.70;72.00;;;;;;2319587;53;20971;-84
2022/12/28 04:37:20;;;;;;;4.43;0.88;;;10.70;72.00;;;;;;2318844;53;20927;-85
2022/12/28 04:39:46;;;;;;;3.00;0.40;;;10.70;71.90;;;;;;2558929;53;21240;-84
2022/12/28 04:42:12;;;;;;;1.37;0.40;;;10.70;71.90;;;;;;2297005;53;20985;-84
2022/12/28 04:44:38;;;;;;;1.95;0.55;;;10.80;72.00;;;;;;2559171;53;21012;-85
2022/12/28 04:47:05;;;;;;;1.55;0.40;;;10.80;71.90;;;;;;2558809;53;20974;-84
2022/12/28 04:49:31;;;;;;;1.10;0.40;;;10.80;71.90;;;;;;2559094;53;21438;-85
2022/12/28 04:51:57;;;;;;;1.30;0.40;;;10.80;71.80;;;;;;2319366;53;20915;-84
2022/12/28 04:54:23;;;;;;;2.10;0.70;;;10.80;71.70;;;;;;2559352;53;20947;-85
2022/12/28 04:56:50;;;;;;;1.48;0.43;;;10.80;71.70;;;;;;2319661;53;20983;-85
2022/12/28 04:59:16;;;;;;;2.37;0.55;;;10.80;71.70;;;;;;2558463;53;20919;-84
2022/12/28 05:01:42;;;;;;;1.52;0.45;;;10.80;71.70;;;;;;2319547;53;21483;-84
2022/12/28 05:04:09;;;;;;;1.50;0.50;;;10.80;71.70;;;;;;2558815;53;20959;-84
2022/12/28 05:06:35;;;;;;;2.15;0.55;;;10.90;71.80;;;;;;2320132;53;21014;-84
2022/12/28 05:09:01;;;;;;;1.40;0.52;;;10.90;71.70;;;;;;2558554;53;20895;-84
2022/12/28 05:11:28;;;;;;;1.15;0.40;;;10.90;71.70;;;;;;2559394;53;21062;-84
2022/12/28 05:13:55;;;;;;;0.57;0.30;;;10.90;71.70;;;;;;2319615;53;21466;-84
2022/12/28 05:16:23;;;;;;;2.22;0.50;;;10.90;71.70;;;;;;2319634;53;21753;-86
2022/12/28 05:18:50;;;;;;;2.15;0.40;;;10.90;71.50;;;;;;2559185;53;20912;-85
2022/12/28 05:21:21;;;;;;;1.27;0.50;;;10.90;71.50;;;;;;2318893;53;20951;-85
2022/12/28 05:23:47;;;;;;;3.60;0.80;;;10.90;71.50;;;;;;2559253;53;20983;-84
2022/12/28 05:26:15;;;;;;;1.95;0.55;;;10.90;71.50;;;;;;2558856;53;20974;-84
2022/12/28 05:28:41;;;;;;;1.08;0.40;;;10.90;71.50;;;;;;2319056;53;21829;-85
2022/12/28 05:31:13;;;;;;;1.58;0.68;;;10.90;71.50;;;;;;2319093;53;21661;-85
2022/12/28 05:33:39;;;;;;;1.20;0.50;;;10.90;71.30;;;;;;2559233;53;20967;-84
2022/12/28 05:36:10;;;;;;;1.60;0.57;;;10.90;71.50;;;;;;2559454;53;21685;-84
2022/12/28 05:38:36;;;;;;;1.65;0.40;;;11.00;71.40;;;;;;2319681;53;20994;-84
2022/12/28 05:41:14;;;;;;;2.10;0.55;;;11.00;71.60;;;;;;2318809;53;20995;-84
2022/12/28 05:43:40;;;;;;;1.87;0.40;;;11.00;71.30;;;;;;2319911;53;20962;-84
2022/12/28 05:46:11;;;;;;;1.33;0.40;;;11.00;71.60;;;;;;2559174;53;20986;-84
2022/12/28 05:48:38;;;;;;;2.58;0.50;;;11.00;71.60;;;;;;2319302;53;21408;-85
2022/12/28 05:51:09;;;;;;;1.67;0.55;;;11.00;71.50;;;;;;2558910;53;21023;-84
2022/12/28 05:53:36;;;;;;;1.95;0.52;;;11.00;71.60;;;;;;2559730;53;20927;-85
2022/12/28 05:56:14;;;;;;;2.67;0.60;;;11.00;71.60;;;;;;2558037;53;20959;-84
2022/12/28 05:58:41;;;;;;;1.75;0.50;;;11.00;71.50;;;;;;2319297;53;21048;-84
2022/12/28 06:01:09;;;;;;;1.12;0.32;;;11.00;71.50;;;;;;2558944;53;20995;-84
2022/12/28 06:03:36;;;;;;;2.08;0.50;;;11.10;71.50;;;;;;2559864;53;20951;-84
2022/12/28 06:06:07;;;;;;;1.77;0.50;;;11.10;71.50;;;;;;2559077;53;20904;-84
2022/12/28 06:08:33;;;;;;;2.42;0.60;;;11.00;71.20;;;;;;2559337;53;20935;-84
2022/12/28 06:11:01;;;;;;;0.35;0.22;;;11.10;71.50;;;;;;2558283;53;21008;-84
2022/12/28 06:13:27;;;;;;;2.03;0.35;;;11.10;71.50;;;;;;2319762;53;20975;-84
2022/12/28 06:15:54;;;;;;;2.08;0.45;;;11.10;71.50;;;;;;2559151;53;20978;-85
2022/12/28 06:18:20;;;;;;;1.05;0.40;;;11.10;71.50;;;;;;2558978;53;20974;-84
2022/12/28 06:20:46;;;;;;;1.00;0.40;;;11.10;71.50;;;;;;2319564;53;20971;-85
2022/12/28 06:23:14;;;;;;;0.95;0.37;;;11.10;71.50;;;;;;2319323;53;21443;-85
2022/12/28 06:25:40;;;;;;;1.45;0.50;;;11.10;71.50;;;;;;2559373;53;21037;-84
2022/12/28 06:28:06;;;;;;;1.60;0.45;;;11.10;71.50;;;;;;2558462;53;20948;-85
2022/12/28 06:30:33;;;;;;;1.58;0.45;;;11.10;71.40;;;;;;2559561;53;20931;-84
2022/12/28 06:32:59;;;;;;;2.62;0.62;;;11.10;71.30;;;;;;2319878;53;21788;-85
2022/12/28 06:35:25;;;;;;;3.53;0.60;;;11.10;71.20;;;;;;2559918;53;21428;-85
2022/12/28 06:37:51;;;;;;;1.55;0.57;;;11.10;71.20;;;;;;2319313;53;20967;-85
2022/12/28 06:40:18;;;;;;;1.40;0.47;;;11.10;71.10;;;;;;2319339;53;20942;-85
2022/12/28 06:42:45;;;;;;;2.45;0.40;;;11.10;71.10;;;;;;2559602;53;20971;-84
2022/12/28 06:45:11;;;;;;;1.10;0.50;;;11.10;71.00;;;;;;2300768;54;21009;-84
2022/12/28 06:47:38;;;;;;;1.95;0.55;;;11.10;71.00;;;;;;2554436;53;21877;-84
2022/12/28 06:50:05;;;;;;;0.75;0.35;;;11.10;70.90;;;;;;2319509;53;20916;-84
2022/12/28 06:52:31;;;;;;;1.45;0.50;;;11.10;70.90;;;;;;2559433;53;20911;-84
2022/12/28 06:54:58;;;;;;;1.77;0.52;;;11.10;71.00;;;;;;2559629;53;20998;-84
2022/12/28 06:57:24;;;;;;;1.23;0.50;;;11.10;71.00;;;;;;2319409;53;20908;-84
2022/12/28 06:59:51;;;;;;;1.37;0.50;;;11.10;71.00;;;;;;2559117;53;21090;-84
2022/12/28 07:02:18;;;;;;;0.95;0.45;;;11.10;71.10;;;;;;2558534;53;20939;-85
2022/12/28 07:04:44;;;;;;;0.73;0.40;;;11.10;71.10;;;;;;2320020;53;21023;-84
2022/12/28 07:07:10;;;;;;;2.08;0.60;;;11.10;71.10;;;;;;2559486;53;21033;-84
2022/12/28 07:09:37;;;;;;;2.45;0.70;;;11.10;71.10;;;;;;2560014;53;20920;-85
2022/12/28 07:12:03;;;;;;;1.90;0.77;;;11.10;71.20;;;;;;2559831;53;20923;-84
2022/12/28 07:14:31;;;;;;;1.10;0.50;;;11.10;71.20;;;;;;2559922;53;20944;-84
2022/12/28 07:16:57;;;;;;;3.08;0.70;;;11.10;71.10;;;;;;2319636;53;20979;-84
2022/12/28 07:19:23;;;;;;;1.98;0.50;;;11.10;71.10;;;;;;2319765;53;21056;-85
2022/12/28 07:21:49;;;;;;;2.53;0.60;;;11.10;71.10;;;;;;2320174;53;20971;-84
2022/12/28 07:24:16;;;;;;;1.87;0.60;;;11.10;71.10;;;;;;2319883;53;20939;-84
2022/12/28 07:26:42;;;;;;;2.28;0.90;;;11.10;71.10;;;;;;2320663;53;21602;-85
2022/12/28 07:29:09;;;;;;;1.48;0.60;;;11.10;71.10;;;;;;2320511;53;20956;-84
2022/12/28 07:31:37;;;;;;;1.80;0.98;;;11.10;71.10;;;;;;2561413;53;21811;-85
2022/12/28 07:34:07;;;;;;;1.67;0.70;;;11.10;71.20;;;;;;2321096;53;21326;-84
2022/12/28 07:36:33;;;;;;;1.60;0.68;;;11.10;71.20;;;;;;2532400;53;20994;-84
2022/12/28 07:39:00;;;;;;;1.75;0.68;;;11.10;71.30;;;;;;2320362;53;20950;-84
2022/12/28 07:41:28;;;;;;;0.98;0.45;;;11.10;71.30;;;;;;2560202;53;20911;-85
2022/12/28 07:43:54;;;;;;;2.78;0.55;;;11.10;71.20;;;;;;2560053;53;21710;-84
2022/12/28 07:46:26;;;;;;;1.87;0.80;;;11.10;71.50;;;;;;2320256;53;21054;-85
2022/12/28 07:48:52;;;;;;;1.37;0.50;;;11.10;71.30;;;;;;2319819;53;20935;-83
2022/12/28 07:51:21;;;;;;;0.88;0.50;;;11.10;71.50;;;;;;2319797;53;21042;-84
2022/12/28 07:53:48;;;;;;;1.40;0.60;;;11.20;71.60;;;;;;2320014;53;20927;-85
2022/12/28 07:56:14;;;;;;;2.33;0.50;;;11.20;71.70;;;;;;2559709;53;21302;-84
2022/12/28 07:58:41;;;;;;;1.50;0.52;;;11.20;71.70;;;;;;2559848;53;20971;-84
2022/12/28 08:01:11;;;;;;;2.10;0.75;;;11.20;71.70;;;;;;2559399;53;21015;-84
2022/12/28 08:03:37;;;;;;;3.05;1.12;;;11.20;71.70;;;;;;2320306;53;20976;-84
2022/12/28 08:06:14;;;;;;;1.98;0.70;;;11.30;71.80;;;;;;2559376;53;20911;-84
2022/12/28 08:08:41;;;;;;;2.75;0.60;;;11.30;71.40;;;;;;2559070;53;20944;-83
2022/12/28 08:11:10;;;;;;;1.25;0.50;;;11.30;71.80;;;;;;2559503;53;20911;-84
2022/12/28 08:13:38;;;;;;;1.15;0.43;;;11.30;71.70;;;;;;2309549;55;20922;-85
2022/12/28 08:16:04;;;;;;;2.08;0.60;;;11.30;71.80;;;;;;2560508;54;20961;-84
2022/12/28 08:18:30;;;;;;;1.80;0.65;;;11.40;71.90;;;;;;2559935;54;20883;-83
2022/12/28 08:21:04;;;;;;;1.12;0.50;;;11.40;71.90;;;;;;2319866;55;20957;-85
2022/12/28 08:23:30;;;;;;;1.30;0.50;;;11.40;71.50;;;;;;2560578;54;21046;-85
2022/12/28 08:26:05;;;;;;;1.67;0.60;;;11.40;71.90;;;;;;2320147;55;21041;-84
2022/12/28 08:28:31;;;;;;;1.62;0.68;;;11.50;71.60;;;;;;2560152;54;20974;-84
2022/12/28 08:30:57;;;;;;;1.73;0.60;;;11.50;72.00;;;;;;2559283;54;21514;-84
2022/12/28 08:33:23;;;;;;;1.90;0.47;;;11.50;72.00;;;;;;2559755;54;20973;-84
2022/12/28 08:35:50;;;;;;;1.65;0.70;;;11.50;72.00;;;;;;2320057;55;20979;-85
2022/12/28 08:38:16;;;;;;;1.35;0.50;;;11.50;72.10;;;;;;2319380;55;20942;-84
2022/12/28 08:40:42;;;;;;;2.12;0.40;;;11.50;72.10;;;;;;2320038;55;21829;-85
2022/12/28 08:43:08;;;;;;;1.85;0.45;;;11.60;72.20;;;;;;2319837;55;20926;-85
2022/12/28 08:45:35;;;;;;;1.33;0.50;;;11.60;72.10;;;;;;2320023;55;20990;-84
2022/12/28 08:48:01;;;;;;;2.03;0.45;;;11.70;72.30;;;;;;2559735;54;20938;-85
2022/12/28 08:50:27;;;;;;;0.93;0.47;;;11.70;72.30;;;;;;2560505;54;20922;-85
2022/12/28 08:52:57;;;;;;;1.67;0.50;;;11.70;72.40;;;;;;2559646;54;21030;-85
2022/12/28 08:55:23;;;;;;;1.00;0.30;;;11.80;72.60;;;;;;2560207;54;20978;-85
2022/12/28 08:57:49;;;;;;;1.15;0.47;;;11.80;72.60;;;;;;2319963;55;20926;-84
2022/12/28 09:00:16;;;;;;;1.33;0.50;;;11.90;72.60;;;;;;2558895;54;20935;-84
2022/12/28 09:02:43;;;;;;;2.47;0.60;;;11.90;72.70;;;;;;2560381;54;20921;-84
2022/12/28 09:05:09;;;;;;;1.05;0.47;;;11.80;72.50;;;;;;2320253;55;21026;-84
2022/12/28 09:07:35;;;;;;;2.03;0.50;;;12.00;73.00;;;;;;2319847;55;20954;-84
2022/12/28 09:10:04;;;;;;;1.30;0.50;;;11.90;72.60;;;;;;2558745;54;20910;-84
2022/12/28 09:12:30;;;;;;;1.20;0.40;;;12.10;72.90;;;;;;2560560;54;20922;-84
2022/12/28 09:14:56;;;;;;;1.08;0.40;;;12.10;73.00;;;;;;2559162;54;21777;-84
2022/12/28 09:17:22;;;;;;;2.80;0.60;;;12.20;73.00;;;;;;2559822;54;21009;-84
2022/12/28 09:19:50;;;;;;;0.62;0.30;;;12.20;72.90;;;;;;2559274;54;20934;-85
2022/12/28 09:22:16;;;;;;;1.80;0.50;;;12.30;73.10;;;;;;2559410;54;20971;-84
2022/12/28 09:24:42;;;;;;;1.42;0.40;;;12.30;72.90;;;;;;2560303;54;20938;-84
2022/12/28 09:27:08;;;;;;;2.30;0.50;;;12.40;73.00;;;;;;2320014;55;21057;-85
2022/12/28 09:29:35;;;;;;;2.47;0.62;;;12.40;73.00;;;;;;2320066;55;21002;-84
2022/12/28 09:32:01;;;;;;;1.62;0.60;;;12.50;72.90;;;;;;2561693;54;21071;-84
2022/12/28 09:34:28;;;;;;;2.05;0.50;;;12.50;72.90;;;;;;2560390;54;20946;-84
2022/12/28 09:37:02;;;;;;;2.70;0.50;;;12.60;72.80;;;;;;2531852;54;22037;-84
2022/12/28 09:39:29;;;;;;;1.58;0.50;;;12.60;72.80;;;;;;2559143;54;20907;-83
2022/12/28 09:42:04;;;;;;;1.40;0.55;;;12.60;72.70;;;;;;2559114;54;21033;-83
2022/12/28 09:45:52;;;;;;;1.55;0.68;;;12.70;72.20;;;;;;2318514;55;20954;-84
2022/12/28 09:48:20;;;;;;;1.65;0.47;;;12.80;70.70;;;;;;2559155;54;21864;-84
2022/12/28 09:50:47;;;;;;;1.98;0.57;;;12.80;72.60;;;;;;2559206;54;20979;-85
2022/12/28 09:53:21;;;;;;;1.02;0.40;;;12.90;72.70;;;;;;2559249;54;20946;-84
2022/12/28 09:56:43;;;;;;;1.62;0.50;;;12.90;72.20;;;;;;2559743;54;20998;-84
2022/12/28 09:59:11;;;;;;;1.62;0.60;;;12.90;71.90;;;;;;2558438;54;20938;-84
2022/12/28 10:01:38;;;;;;;2.62;0.77;;;13.00;72.60;;;;;;2558860;54;21766;-84
2022/12/28 10:04:04;;;;;;;2.55;0.60;;;13.00;72.50;;;;;;2559577;54;21649;-84
2022/12/28 10:06:34;;;;;;;3.20;0.98;;;13.00;72.50;;;;;;2319643;55;21319;-83
2022/12/28 10:09:01;;;;;;;2.22;0.73;;;13.10;72.60;;;;;;2319224;55;21782;-84
2022/12/28 10:11:32;;;;;;;2.22;0.75;;;13.10;72.50;;;;;;2319301;55;20970;-85
2022/12/28 10:14:01;;;;;;;2.40;0.85;;;13.20;72.50;;;;;;2559367;54;20930;-85
2022/12/28 10:16:30;;;;;;;2.10;0.75;;;13.20;72.40;;;;;;2319876;55;21041;-84
2022/12/28 10:18:57;;;;;;;1.55;0.60;;;13.20;72.40;;;;;;2559326;54;21001;-84
2022/12/28 10:21:24;;;;;;;2.30;0.80;;;13.30;72.40;;;;;;2559125;54;20979;-84
2022/12/28 10:23:55;;;;;;;2.15;0.60;;;13.30;72.40;;;;;;2559984;54;21225;-86
2022/12/28 10:26:46;;;;;;;2.10;0.55;;;13.30;72.20;;;;;;2560308;54;20985;-85
2022/12/28 10:29:17;;;;;;;2.33;0.60;;;13.30;72.20;;;;;;2559339;54;20918;-84
2022/12/28 10:31:44;;;;;;;1.35;0.55;;;13.40;72.10;;;;;;2320267;55;21026;-85
2022/12/28 10:34:14;;;;;;;2.67;0.62;;;13.40;72.20;;;;;;2559897;54;20947;-84
2022/12/28 10:36:41;;;;;;;2.03;0.68;;;13.40;71.60;;;;;;2560080;54;20926;-84
2022/12/28 10:39:13;;;;;;;2.75;0.65;;;13.50;72.00;;;;;;2560071;54;20937;-84
2022/12/28 10:41:39;;;;;;;2.12;0.60;;;13.50;71.70;;;;;;2320044;55;20993;-82
2022/12/28 10:44:29;;;;;;;0.95;0.50;;;13.50;71.80;;;;;;2320070;55;20918;-83
2022/12/28 10:47:05;;;;;;;1.15;0.52;;;13.50;70.90;;;;;;2558711;54;20982;-83
2022/12/28 10:49:36;;;;;;;1.15;0.60;;;13.50;71.70;;;;;;2270541;55;21519;-83
2022/12/28 10:52:26;;;;;;;1.12;0.50;;;13.50;71.40;;;;;;2526010;54;21419;-83
2022/12/28 10:54:52;;;;;;;1.48;0.50;;;13.50;70.40;;;;;;2526354;54;21782;-85
2022/12/28 10:57:30;;;;;;;3.03;0.70;;;13.50;71.70;;;;;;2526651;54;21076;-85
2022/12/28 11:00:19;;;;;;;2.17;0.80;;;13.50;70.90;;;;;;2526475;54;20946;-85
2022/12/28 11:02:45;;;;;;;2.70;0.60;;;13.50;70.50;;;;;;2293053;55;20985;-82
2022/12/28 11:05:19;;;;;;;1.83;0.70;;;13.50;71.80;;;;;;2292441;55;20944;-81
2022/12/28 11:07:48;;;;;;;2.37;0.70;;;13.60;71.40;;;;;;2292786;55;20925;-83
2022/12/28 11:10:25;;;;;;;2.25;0.70;;;13.60;71.90;;;;;;2526768;54;21854;-85
2022/12/28 11:12:56;;;;;;;1.67;0.60;;;13.60;71.40;;;;;;2527238;54;21048;-86
2022/12/28 11:15:26;;;;;;;1.50;0.55;;;13.60;72.20;;;;;;2527106;54;20961;-82
2022/12/28 11:18:01;;;;;;;1.35;0.55;;;13.60;72.20;;;;;;2526334;54;20909;-83
2022/12/28 11:20:35;;;;;;;2.40;0.60;;;13.70;72.50;;;;;;2292767;55;21462;-85
2022/12/28 11:23:04;;;;;;;2.53;0.70;;;13.70;72.00;;;;;;2292622;55;20961;-87
2022/12/28 11:25:33;;;;;;;4.32;0.60;;;13.70;72.60;;;;;;2527468;54;20945;-84
2022/12/28 11:28:00;;;;;;;3.65;0.60;;;13.80;72.90;;;;;;2525760;54;20961;-85
2022/12/28 11:30:27;;;;;;;1.60;0.60;;;13.80;72.80;;;;;;2292329;55;20996;-85
2022/12/28 11:32:55;;;;;;;2.20;0.70;;;13.80;73.00;;;;;;2526922;54;21517;-82
2022/12/28 11:35:24;;;;;;;2.28;0.62;;;13.90;73.20;;;;;;2526666;54;20929;-81
2022/12/28 11:38:00;;;;;;;1.87;0.75;;;14.00;73.40;;;;;;2291909;55;20976;-82
2022/12/28 11:40:47;;;;;;;2.17;0.60;;;14.10;73.10;;;;;;2292708;55;21405;-82
2022/12/28 11:46:55;;;;;;;2.15;0.52;;;14.20;72.30;;;;;;2526302;54;20941;-81
2022/12/28 11:49:29;;;;;;;1.37;0.45;;;14.30;71.60;;;;;;2271495;55;1307579;-83
2022/12/28 11:52:35;;;;;;;1.20;0.40;;;14.40;73.10;;;;;;2526451;54;20945;-83
2022/12/28 11:55:34;;;;;;;1.12;0.47;;;14.40;71.60;;;;;;2526535;54;20966;-84
2022/12/28 11:59:05;;;;;;;1.98;0.55;;;14.40;71.10;;;;;;2292303;55;21044;-82
2022/12/28 12:01:41;;;;;;;2.05;0.60;;;14.50;70.90;;;;;;2296240;55;21833;-81
2022/12/28 12:04:15;;;;;;;2.08;0.60;;;14.50;71.90;;;;;;2301199;54;21464;-82
2022/12/28 12:07:43;;;;;;;1.25;0.57;;;14.50;71.90;;;;;;2526583;54;21976;-82
2022/12/28 12:10:13;;;;;;;2.03;0.60;;;14.50;70.00;;;;;;2526576;54;21028;-81
2022/12/28 12:12:47;;;;;;;2.95;0.75;;;14.50;71.90;;;;;;2553362;54;20930;-82
2022/12/28 12:15:15;;;;;;;1.80;0.60;;;14.50;71.30;;;;;;2558861;54;20907;-82
2022/12/28 12:17:59;;;;;;;2.05;0.60;;;14.50;71.90;;;;;;2319332;55;20946;-81
2022/12/28 12:20:46;;;;;;;1.58;0.60;;;14.60;71.70;;;;;;2559907;54;20936;-81
2022/12/28 12:23:24;;;;;;;1.75;0.90;;;14.60;71.90;;;;;;2321613;55;20946;-82
2022/12/28 12:25:53;;;;;;;1.30;0.50;;;14.60;71.60;;;;;;2319467;55;21486;-82
2022/12/28 12:28:37;;;;;;;1.90;0.60;;;14.60;72.10;;;;;;2319175;55;21041;-81
2022/12/28 12:31:06;;;;;;;1.17;0.43;;;14.60;70.60;;;;;;2559712;54;20974;-85
2022/12/28 12:33:36;;;;;;;1.62;0.70;;;14.60;71.70;;;;;;2559841;54;21050;-85
2022/12/28 12:40:43;;;;;;;1.27;0.52;;;14.60;71.40;;;;;;2320196;55;21825;-82
2022/12/28 12:44:48;;;;;;;2.08;0.50;;;14.60;69.90;;;;;;2562645;54;21002;-84
2022/12/28 12:47:45;;;;;;;2.72;0.60;;;14.70;70.10;;;;;;2560372;54;20974;-84
2022/12/28 12:50:26;;;;;;;2.45;0.70;;;14.70;70.40;;;;;;2320013;55;20926;-83
2022/12/28 12:53:04;;;;;;;1.17;0.60;;;14.70;71.30;;;;;;2560215;54;21004;-82
2022/12/28 12:55:58;;;;;;;1.35;0.50;;;14.70;71.80;;;;;;2320826;55;20942;-83
2022/12/28 12:59:16;;;;;;;1.10;0.45;;;14.70;70.40;;;;;;2320083;55;21043;-83
2022/12/28 13:03:26;;;;;;;1.02;0.47;;;14.70;71.80;;;;;;2523659;54;21139;-83
2022/12/28 13:05:53;;;;;;;2.12;0.73;;;14.70;69.70;;;;;;2320742;55;21331;-83
2022/12/28 13:08:25;;;;;;;1.67;0.60;;;14.70;71.90;;;;;;2319561;54;21846;-83
2022/12/28 13:10:52;;;;;;;1.50;0.60;;;14.70;71.60;;;;;;2522166;53;21047;-83
2022/12/28 13:13:30;;;;;;;1.33;0.50;;;14.70;72.00;;;;;;2308844;54;20931;-83
2022/12/28 13:16:02;;;;;;;1.65;0.40;;;14.80;71.50;;;;;;2559018;53;20927;-84
2022/12/28 13:18:28;;;;;;;1.85;0.68;;;14.80;72.00;;;;;;2319168;54;20979;-83
2022/12/28 13:21:19;;;;;;;1.48;0.57;;;14.80;72.20;;;;;;2319103;54;20974;-82
2022/12/28 13:23:45;;;;;;;1.83;0.68;;;14.80;71.70;;;;;;2558447;53;20891;-82
2022/12/28 13:26:12;;;;;;;2.53;0.93;;;14.90;72.70;;;;;;2318744;54;20995;-83
2022/12/28 13:28:41;;;;;;;2.25;0.60;;;14.90;72.70;;;;;;2318953;54;20970;-82
2022/12/28 13:31:19;;;;;;;3.65;0.77;;;14.90;72.80;;;;;;2557628;53;20931;-82
2022/12/28 13:34:38;;;;;;;3.17;0.70;;;15.00;72.20;;;;;;2319257;54;20975;-83
2022/12/28 13:37:13;;;;;;;1.92;0.60;;;15.10;71.90;;;;;;2556166;53;20967;-82
2022/12/28 13:39:39;;;;;;;1.50;0.52;;;15.20;72.40;;;;;;2550255;53;21427;-81
2022/12/28 13:44:50;;;;;;;3.22;0.65;;;15.20;73.10;;;;;;2319237;54;21801;-83
2022/12/28 13:47:50;;;;;;;5.07;1.58;;;15.20;72.30;;;;;;2558427;53;20928;-82
2022/12/28 13:50:24;;;;;;;2.25;0.80;;;15.40;70.90;;;;;;2318799;54;21787;-82
2022/12/28 13:52:53;;;;;;;3.05;1.27;;;15.40;72.10;;;;;;2558764;53;20954;-85
2022/12/28 13:55:29;;;;;;;4.10;1.12;;;15.40;72.60;;;;;;2539535;54;21042;-85
2022/12/28 13:57:57;;;;;;;2.50;0.80;;;15.50;71.70;;;;;;2559404;54;20978;-85
2022/12/28 14:00:25;;;;;;;2.33;0.82;;;15.50;72.30;;;;;;2559371;54;20914;-83
2022/12/28 14:02:53;;;;;;;2.92;0.80;;;15.50;72.20;;;;;;2320196;55;20922;-83
2022/12/28 14:05:21;;;;;;;2.42;0.60;;;15.50;72.10;;;;;;2321035;55;22491;-84
2022/12/28 14:07:47;;;;;;;2.42;0.93;;;15.50;72.20;;;;;;2558995;54;20935;-85